createdAt,value
2023-03-22T00:02:35.695Z,11.60
2023-03-22T00:05:36.757Z,11.59
2023-03-22T00:08:38.078Z,11.60
2023-03-22T00:11:39.121Z,11.62
2023-03-22T00:14:40.695Z,11.61
2023-03-22T00:17:41.661Z,11.59
2023-03-22T00:20:50.074Z,11.54
2023-03-22T00:23:51.316Z,11.46
2023-03-22T00:26:52.483Z,11.38
2023-03-22T00:29:53.479Z,11.33
2023-03-22T00:32:54.393Z,11.28
2023-03-22T00:36:07.604Z,11.23
2023-03-22T00:39:08.647Z,11.19
2023-03-22T00:42:10.343Z,11.16
2023-03-22T00:45:11.948Z,11.11
2023-03-22T00:48:13.125Z,11.07
2023-03-22T00:51:14.965Z,11.05
2023-03-22T00:54:34.824Z,11.04
2023-03-22T00:57:37.186Z,11.07
2023-03-22T01:00:38.636Z,11.11
2023-03-22T01:03:41.289Z,11.15
2023-03-22T01:06:42.492Z,11.14
2023-03-22T01:09:44.828Z,11.13
2023-03-22T01:12:48.553Z,11.13
2023-03-22T01:15:50.592Z,11.13
2023-03-22T01:18:51.840Z,11.13
2023-03-22T01:21:54.076Z,11.13
2023-03-22T01:24:55.025Z,11.14
2023-03-22T01:27:56.107Z,11.12
2023-03-22T01:31:00.740Z,11.09
2023-03-22T01:34:01.801Z,11.06
2023-03-22T01:37:03.229Z,11.02
2023-03-22T01:40:06.315Z,10.98
2023-03-22T01:43:14.512Z,10.95
2023-03-22T01:46:15.656Z,10.93
2023-03-22T01:49:21.730Z,10.92
2023-03-22T01:52:24.160Z,10.95
2023-03-22T01:55:34.879Z,10.97
2023-03-22T01:58:50.516Z,10.97
2023-03-22T02:01:53.542Z,10.94
2023-03-22T02:04:57.342Z,10.92
2023-03-22T02:07:58.794Z,10.93
2023-03-22T02:11:01.302Z,10.94
2023-03-22T02:14:29.334Z,10.96
2023-03-22T02:17:59.320Z,10.95
2023-03-22T02:21:35.456Z,10.89
2023-03-22T02:24:54.933Z,10.82
2023-03-22T02:28:21.475Z,10.73
2023-03-22T02:31:31.421Z,10.65
2023-03-22T02:34:32.633Z,10.58
2023-03-22T02:37:42.646Z,10.54
2023-03-22T02:41:05.804Z,10.53
2023-03-22T02:44:34.293Z,10.49
2023-03-22T02:48:02.303Z,10.43
2023-03-22T02:51:07.956Z,10.38
2023-03-22T02:54:21.115Z,10.37
2023-03-22T02:57:43.902Z,10.37
2023-03-22T03:00:45.952Z,10.39
2023-03-22T03:03:49.562Z,10.38
2023-03-22T03:06:51.749Z,10.36
2023-03-22T03:09:53.133Z,10.34
2023-03-22T03:12:54.461Z,10.32
2023-03-22T03:16:00.705Z,10.31
2023-03-22T03:19:10.973Z,10.30
2023-03-22T03:22:24.258Z,10.30
2023-03-22T03:25:45.758Z,10.30
2023-03-22T03:29:08.502Z,10.30
2023-03-22T03:32:17.114Z,10.27
2023-03-22T03:35:24.999Z,10.27
2023-03-22T03:38:28.839Z,10.30
2023-03-22T03:41:30.225Z,10.32
2023-03-22T03:44:32.241Z,10.33
2023-03-22T03:47:33.926Z,10.38
2023-03-22T03:50:35.237Z,10.43
2023-03-22T03:53:36.289Z,10.48
2023-03-22T03:56:37.445Z,10.49
2023-03-22T03:59:38.433Z,10.50
2023-03-22T04:02:45.897Z,10.50
2023-03-22T04:06:00.449Z,10.46
2023-03-22T04:09:01.866Z,10.41
2023-03-22T04:12:05.533Z,10.38
2023-03-22T04:15:07.268Z,10.33
2023-03-22T04:18:10.584Z,10.29
2023-03-22T04:21:12.687Z,10.26
2023-03-22T04:24:20.952Z,10.24
2023-03-22T04:27:24.327Z,10.24
2023-03-22T04:30:35.489Z,10.25
2023-03-22T04:33:38.707Z,10.27
2023-03-22T04:36:49.149Z,10.28
2023-03-22T04:39:57.198Z,10.25
2023-03-22T04:43:09.919Z,10.23
2023-03-22T04:46:25.269Z,10.20
2023-03-22T04:49:38.873Z,10.14
2023-03-22T04:52:40.974Z,10.07
2023-03-22T04:55:43.087Z,10.00
2023-03-22T04:58:44.525Z,9.97
2023-03-22T05:01:47.706Z,9.93
2023-03-22T05:04:50.973Z,9.88
2023-03-22T05:08:06.059Z,9.85
2023-03-22T05:11:10.087Z,9.85
2023-03-22T05:14:13.718Z,9.87
2023-03-22T05:17:15.782Z,9.87
2023-03-22T05:20:18.384Z,9.87
2023-03-22T05:23:24.084Z,9.87
2023-03-22T05:26:28.313Z,9.86
2023-03-22T05:29:36.171Z,9.84
2023-03-22T05:32:44.012Z,9.81
2023-03-22T05:35:51.413Z,9.80
2023-03-22T05:38:52.858Z,9.79
2023-03-22T05:41:54.018Z,9.79
2023-03-22T05:45:03.044Z,9.78
2023-03-22T05:48:07.221Z,9.75
2023-03-22T05:51:16.989Z,9.75
2023-03-22T05:54:18.175Z,9.76
2023-03-22T05:57:23.189Z,9.77
2023-03-22T06:00:24.872Z,9.80
2023-03-22T06:03:44.067Z,9.84
2023-03-22T06:06:54.904Z,9.88
2023-03-22T06:10:09.017Z,9.92
2023-03-22T06:13:10.500Z,9.96
2023-03-22T06:16:11.625Z,9.99
2023-03-22T06:19:12.802Z,10.00
2023-03-22T06:22:13.769Z,10.00
2023-03-22T06:25:14.990Z,9.99
2023-03-22T06:28:17.290Z,9.98
2023-03-22T06:31:25.934Z,9.99
2023-03-22T06:34:31.500Z,10.01
2023-03-22T06:37:32.563Z,10.03
2023-03-22T06:40:35.047Z,10.09
2023-03-22T06:43:36.363Z,10.15
2023-03-22T06:46:55.895Z,10.23
2023-03-22T06:50:10.764Z,10.32
2023-03-22T06:53:36.990Z,10.43
2023-03-22T06:56:38.209Z,10.57
2023-03-22T06:59:40.091Z,10.72
2023-03-22T07:02:41.068Z,10.87
2023-03-22T07:05:52.089Z,11.06
2023-03-22T07:08:53.222Z,11.23
2023-03-22T07:11:58.433Z,11.39
2023-03-22T07:14:59.554Z,11.53
2023-03-22T07:18:22.248Z,11.68
2023-03-22T07:21:23.383Z,11.81
2023-03-22T07:24:28.671Z,11.92
2023-03-22T07:27:29.773Z,12.04
2023-03-22T07:30:31.041Z,12.15
2023-03-22T07:33:32.105Z,12.28
2023-03-22T07:36:33.376Z,12.38
2023-03-22T07:39:34.842Z,12.49
2023-03-22T07:42:36.809Z,12.62
2023-03-22T07:45:52.924Z,12.74
2023-03-22T07:49:23.197Z,12.89
2023-03-22T07:52:40.961Z,13.07
2023-03-22T07:55:41.929Z,13.22
2023-03-22T07:58:42.889Z,13.38
2023-03-22T08:01:44.038Z,13.55
2023-03-22T08:05:14.039Z,13.77
2023-03-22T08:08:17.198Z,13.95
2023-03-22T08:11:19.287Z,14.13
2023-03-22T08:14:30.628Z,14.31
2023-03-22T08:17:37.567Z,14.48
2023-03-22T08:20:55.729Z,14.65
2023-03-22T08:23:56.749Z,14.80
2023-03-22T08:27:16.700Z,14.96
2023-03-22T08:30:24.011Z,15.10
2023-03-22T08:33:25.069Z,15.25
2023-03-22T08:36:26.542Z,15.37
2023-03-22T08:39:33.270Z,15.50
2023-03-22T08:42:53.481Z,15.62
2023-03-22T08:45:54.671Z,15.71
2023-03-22T08:48:58.885Z,15.80
2023-03-22T08:52:08.012Z,15.92
2023-03-22T08:55:39.297Z,16.02
2023-03-22T08:58:45.957Z,16.12
2023-03-22T09:02:06.897Z,16.24
2023-03-22T09:05:08.866Z,16.34
2023-03-22T09:08:18.555Z,16.43
2023-03-22T09:11:22.712Z,16.51
2023-03-22T09:14:23.838Z,16.59
2023-03-22T09:17:25.192Z,16.68
2023-03-22T09:20:26.777Z,16.79
2023-03-22T09:23:31.278Z,16.89
2023-03-22T09:26:32.895Z,16.98
2023-03-22T09:29:34.130Z,17.07
2023-03-22T09:32:37.430Z,17.14
2023-03-22T09:35:43.065Z,17.23
2023-03-22T09:38:46.063Z,17.33
2023-03-22T09:41:51.677Z,17.40
2023-03-22T09:44:53.842Z,17.46
2023-03-22T09:47:59.013Z,17.54
2023-03-22T09:51:01.504Z,17.61
2023-03-22T09:54:02.705Z,17.68
2023-03-22T09:57:08.629Z,17.76
2023-03-22T10:00:20.481Z,17.81
2023-03-22T10:03:30.560Z,17.89
2023-03-22T10:06:31.571Z,17.98
2023-03-22T10:10:09.251Z,18.05
2023-03-22T10:13:23.560Z,18.15
2023-03-22T10:16:28.153Z,18.25
2023-03-22T10:19:35.000Z,18.38
2023-03-22T10:22:40.354Z,18.57
2023-03-22T10:25:42.750Z,18.78
2023-03-22T10:28:44.875Z,18.88
2023-03-22T10:31:45.871Z,18.92
2023-03-22T10:34:46.837Z,18.93
2023-03-22T10:37:48.875Z,18.98
2023-03-22T10:40:51.106Z,19.05
2023-03-22T10:43:54.945Z,19.10
2023-03-22T10:46:58.772Z,19.18
2023-03-22T10:50:03.080Z,19.23
2023-03-22T10:53:07.709Z,19.38
2023-03-22T10:56:19.450Z,19.60
2023-03-22T10:59:46.716Z,19.73
2023-03-22T11:02:52.836Z,19.82
2023-03-22T11:06:00.794Z,19.95
2023-03-22T11:09:11.837Z,20.03
2023-03-22T11:12:12.744Z,20.17
2023-03-22T11:15:24.400Z,20.40
2023-03-22T11:18:30.244Z,20.66
2023-03-22T11:21:32.672Z,20.81
2023-03-22T11:24:34.023Z,20.97
2023-03-22T11:27:36.357Z,21.02
2023-03-22T11:30:37.433Z,21.02
2023-03-22T11:33:53.191Z,21.13
2023-03-22T11:36:56.259Z,21.16
2023-03-22T11:40:01.007Z,21.28
2023-03-22T11:43:22.836Z,21.51
2023-03-22T11:46:24.008Z,21.71
2023-03-22T11:49:32.185Z,21.72
2023-03-22T11:52:33.148Z,21.81
2023-03-22T11:55:35.290Z,21.89
2023-03-22T11:58:39.134Z,22.00
2023-03-22T12:01:45.146Z,22.16
2023-03-22T12:04:47.670Z,22.22
2023-03-22T12:07:53.166Z,22.25
2023-03-22T12:11:02.095Z,22.31
2023-03-22T12:14:27.817Z,22.33
2023-03-22T12:17:38.507Z,22.30
2023-03-22T12:20:52.986Z,22.34
2023-03-22T12:23:58.419Z,22.40
2023-03-22T12:27:06.854Z,22.50
2023-03-22T12:30:20.411Z,22.64
2023-03-22T12:33:27.087Z,22.72
2023-03-22T12:36:42.322Z,22.74
2023-03-22T12:39:48.662Z,22.69
2023-03-22T12:42:59.690Z,22.78
2023-03-22T12:46:03.002Z,22.95
2023-03-22T12:49:22.820Z,23.10
2023-03-22T12:52:48.518Z,23.23
2023-03-22T12:55:50.746Z,23.26
2023-03-22T12:58:55.525Z,23.46
2023-03-22T13:02:16.093Z,23.67
2023-03-22T13:05:18.196Z,23.72
2023-03-22T13:08:20.973Z,23.77
2023-03-22T13:11:23.127Z,23.77
2023-03-22T13:14:51.655Z,23.79
2023-03-22T13:17:52.602Z,23.82
2023-03-22T13:21:12.720Z,23.85
2023-03-22T13:24:14.721Z,23.87
2023-03-22T13:27:15.860Z,23.85
2023-03-22T13:30:36.336Z,23.85
2023-03-22T13:33:38.006Z,23.90
2023-03-22T13:36:39.251Z,23.83
2023-03-22T13:39:40.262Z,23.80
2023-03-22T13:42:41.571Z,23.84
2023-03-22T13:46:12.027Z,23.93
2023-03-22T13:49:38.487Z,23.93
2023-03-22T13:52:41.773Z,24.00
2023-03-22T13:55:45.567Z,24.09
2023-03-22T13:58:52.418Z,24.28
2023-03-22T14:02:04.078Z,24.41
2023-03-22T14:05:15.755Z,24.43
2023-03-22T14:08:28.610Z,24.58
2023-03-22T14:11:37.707Z,24.76
2023-03-22T14:14:46.352Z,24.84
2023-03-22T14:17:53.302Z,24.94
2023-03-22T14:20:59.829Z,25.02
